N62YU NZMF-NZQN
Flight info
| Callsign | N62YU |
|---|---|
| Flight time | 0h 17m |
| Altitude | 13000 |
| Route | NZMF DCT IBABU DCT QN |
| Aircraft | P180/L-SBDFGM3RWXY/LB1 |
Departure
| Time | 2026-05-04 12:24 |
|---|---|
| Airport | Milford Sound Airport (NZMF) |
Arrival
| Time | 2026-05-04 12:42 |
|---|---|
| Airport | Queenstown Airport (NZQN) |
| Time | Latitude | Longitude | Altitude | Speed | Heading |
|---|---|---|---|---|---|
| 2026-05-04 12:24 | -44.43567 | 168.04869 | 13540 ft | 309 kts | 65° |
| 2026-05-04 12:24 | -44.42817 | 168.07662 | 13538 ft | 313 kts | 65° |
| 2026-05-04 12:24 | -44.42049 | 168.10521 | 13539 ft | 315 kts | 65° |
| 2026-05-04 12:25 | -44.41268 | 168.13392 | 13540 ft | 317 kts | 65° |
| 2026-05-04 12:25 | -44.40611 | 168.16349 | 13530 ft | 322 kts | 77° |
| 2026-05-04 12:25 | -44.40845 | 168.19470 | 13511 ft | 330 kts | 109° |
| 2026-05-04 12:25 | -44.42183 | 168.22040 | 13523 ft | 330 kts | 140° |
| 2026-05-04 12:26 | -44.44105 | 168.23771 | 13530 ft | 329 kts | 152° |
| 2026-05-04 12:26 | -44.46093 | 168.25372 | 13533 ft | 330 kts | 153° |
| 2026-05-04 12:26 | -44.48201 | 168.26583 | 13514 ft | 327 kts | 171° |
| 2026-05-04 12:26 | -44.50460 | 168.26806 | 13523 ft | 325 kts | 184° |
| 2026-05-04 12:27 | -44.52729 | 168.26856 | 13523 ft | 327 kts | 181° |
| 2026-05-04 12:27 | -44.54992 | 168.27298 | 13517 ft | 331 kts | 170° |
| 2026-05-04 12:27 | -44.57223 | 168.28148 | 13514 ft | 333 kts | 167° |
| 2026-05-04 12:27 | -44.59455 | 168.29012 | 13531 ft | 331 kts | 171° |
| 2026-05-04 12:28 | -44.61738 | 168.29263 | 13520 ft | 327 kts | 184° |
| 2026-05-04 12:28 | -44.63993 | 168.29548 | 13506 ft | 325 kts | 167° |
| 2026-05-04 12:28 | -44.66131 | 168.30461 | 13512 ft | 319 kts | 168° |
| 2026-05-04 12:28 | -44.68284 | 168.31052 | 13514 ft | 316 kts | 171° |
| 2026-05-04 12:29 | -44.70412 | 168.31921 | 13511 ft | 320 kts | 166° |
| 2026-05-04 12:29 | -44.72585 | 168.32569 | 13505 ft | 319 kts | 175° |
| 2026-05-04 12:29 | -44.74789 | 168.32953 | 13507 ft | 320 kts | 177° |
| 2026-05-04 12:29 | -44.77000 | 168.33375 | 13505 ft | 322 kts | 174° |
| 2026-05-04 12:30 | -44.79197 | 168.34045 | 13503 ft | 324 kts | 169° |
| 2026-05-04 12:30 | -44.81389 | 168.34743 | 13504 ft | 323 kts | 172° |
| 2026-05-04 12:30 | -44.83597 | 168.35286 | 13506 ft | 322 kts | 174° |
| 2026-05-04 12:30 | -44.85806 | 168.35819 | 13506 ft | 322 kts | 173° |
| 2026-05-04 12:31 | -44.88007 | 168.36461 | 13443 ft | 324 kts | 171° |
| 2026-05-04 12:31 | -44.90246 | 168.37114 | 13091 ft | 333 kts | 172° |
| 2026-05-04 12:31 | -44.92558 | 168.37705 | 12657 ft | 342 kts | 173° |
| 2026-05-04 12:31 | -44.94922 | 168.38317 | 12197 ft | 347 kts | 172° |
| 2026-05-04 12:32 | -44.97308 | 168.38789 | 11727 ft | 345 kts | 183° |
| 2026-05-04 12:32 | -45.01210 | 168.35811 | 10832 ft | 318 kts | 244° |
| 2026-05-04 12:32 | -45.01957 | 168.32936 | 10461 ft | 310 kts | 257° |
| 2026-05-04 12:33 | -45.02749 | 168.30126 | 10317 ft | 308 kts | 243° |
| 2026-05-04 12:33 | -45.04181 | 168.27877 | 10327 ft | 308 kts | 228° |
| 2026-05-04 12:33 | -45.05948 | 168.26194 | 10327 ft | 309 kts | 209° |
| 2026-05-04 12:33 | -45.07988 | 168.25231 | 10279 ft | 311 kts | 199° |
| 2026-05-04 12:34 | -45.10178 | 168.24961 | 9889 ft | 328 kts | 176° |
| 2026-05-04 12:34 | -45.12436 | 168.25701 | 9444 ft | 336 kts | 170° |
| 2026-05-04 12:34 | -45.14657 | 168.26682 | 9111 ft | 337 kts | 156° |
| 2026-05-04 12:34 | -45.16466 | 168.28694 | 8697 ft | 339 kts | 128° |
| 2026-05-04 12:35 | -45.17360 | 168.31737 | 8238 ft | 334 kts | 95° |
| 2026-05-04 12:35 | -45.17173 | 168.34816 | 7893 ft | 299 kts | 72° |
| 2026-05-04 12:35 | -45.16518 | 168.37456 | 7525 ft | 269 kts | 58° |
| 2026-05-04 12:35 | -45.15475 | 168.39483 | 7197 ft | 245 kts | 45° |
| 2026-05-04 12:36 | -45.14481 | 168.41341 | 6856 ft | 225 kts | 52° |
| 2026-05-04 12:36 | -45.13717 | 168.43227 | 6534 ft | 220 kts | 63° |
| 2026-05-04 12:36 | -45.13128 | 168.45225 | 6224 ft | 219 kts | 61° |
| 2026-05-04 12:36 | -45.12411 | 168.47117 | 5901 ft | 217 kts | 58° |
| 2026-05-04 12:37 | -45.11683 | 168.48985 | 5602 ft | 215 kts | 58° |
| 2026-05-04 12:37 | -45.10987 | 168.50830 | 5312 ft | 211 kts | 60° |
| 2026-05-04 12:37 | -45.10303 | 168.52661 | 4998 ft | 210 kts | 61° |
| 2026-05-04 12:37 | -45.09647 | 168.54495 | 4675 ft | 208 kts | 60° |
| 2026-05-04 12:38 | -45.08941 | 168.56270 | 4383 ft | 206 kts | 58° |
| 2026-05-04 12:38 | -45.08269 | 168.57923 | 4163 ft | 183 kts | 58° |
| 2026-05-04 12:38 | -45.07690 | 168.59384 | 3785 ft | 156 kts | 60° |
| 2026-05-04 12:38 | -45.07221 | 168.60648 | 3583 ft | 141 kts | 60° |
| 2026-05-04 12:39 | -45.06750 | 168.61900 | 3615 ft | 150 kts | 60° |
| 2026-05-04 12:39 | -45.06238 | 168.63288 | 3472 ft | 170 kts | 62° |
| 2026-05-04 12:39 | -45.05680 | 168.64807 | 3225 ft | 179 kts | 60° |
| 2026-05-04 12:39 | -45.05062 | 168.66310 | 2893 ft | 170 kts | 58° |
| 2026-05-04 12:40 | -45.04471 | 168.67659 | 2507 ft | 155 kts | 53° |
| 2026-05-04 12:40 | -45.03774 | 168.68743 | 2304 ft | 143 kts | 39° |
| 2026-05-04 12:40 | -45.03035 | 168.69629 | 2096 ft | 137 kts | 43° |
| 2026-05-04 12:40 | -45.02510 | 168.70740 | 1807 ft | 136 kts | 64° |
| 2026-05-04 12:41 | -45.02233 | 168.71992 | 1508 ft | 130 kts | 82° |
| 2026-05-04 12:41 | -45.02057 | 168.73163 | 1286 ft | 114 kts | 81° |
| 2026-05-04 12:41 | -45.01893 | 168.74245 | 1178 ft | 105 kts | 81° |
| 2026-05-04 12:41 | -45.01755 | 168.75116 | 1214 ft | 70 kts | 78° |
| 2026-05-04 12:42 | -45.01681 | 168.75600 | 1173 ft | 24 kts | 77° |
| 2026-05-04 12:42 | -45.01689 | 168.75696 | 1215 ft | 2 kts | 136° |
| 2026-05-04 12:42 | -45.01673 | 168.75662 | 1178 ft | 18 kts | 261° |
| 2026-05-04 12:42 | -45.01718 | 168.75364 | 1213 ft | 44 kts | 256° |
| 2026-05-04 12:43 | -45.01801 | 168.74840 | 1165 ft | 60 kts | 258° |
| 2026-05-04 12:43 | -45.01882 | 168.74330 | 1171 ft | 48 kts | 257° |
| 2026-05-04 12:43 | -45.01936 | 168.74108 | 1169 ft | 10 kts | 197° |
| 2026-05-04 12:43 | -45.02064 | 168.74058 | 1165 ft | 23 kts | 182° |
| 2026-05-04 12:44 | -45.02147 | 168.74174 | 1168 ft | 21 kts | 163° |
| 2026-05-04 12:44 | -45.02234 | 168.74203 | 1168 ft | 5 kts | 167° |
| 2026-05-04 12:44 | -45.02272 | 168.74150 | 1168 ft | 3 kts | 250° |
| 2026-05-04 12:44 | -45.02273 | 168.74145 | 1166 ft | 0 kts | 250° |